sensor_id;sensor_type;location;lat;lon;timestamp;temperature;humidity
84173;DHT22;74302;40.122;18.310;2024-02-15T00:01:17;12.30;60.20
84173;DHT22;74302;40.122;18.310;2024-02-15T00:03:00;12.20;60.20
84173;DHT22;74302;40.122;18.310;2024-02-15T00:04:44;12.20;60.20
84173;DHT22;74302;40.122;18.310;2024-02-15T00:06:28;12.20;60.30
84173;DHT22;74302;40.122;18.310;2024-02-15T00:08:13;12.20;60.30
84173;DHT22;74302;40.122;18.310;2024-02-15T00:09:58;12.20;60.30
84173;DHT22;74302;40.122;18.310;2024-02-15T00:11:45;12.20;60.40
84173;DHT22;74302;40.122;18.310;2024-02-15T00:13:29;12.20;60.40
84173;DHT22;74302;40.122;18.310;2024-02-15T00:15:16;12.20;60.40
84173;DHT22;74302;40.122;18.310;2024-02-15T00:17:02;12.10;60.50
84173;DHT22;74302;40.122;18.310;2024-02-15T00:18:45;12.20;60.50
84173;DHT22;74302;40.122;18.310;2024-02-15T00:20:29;12.10;60.60
84173;DHT22;74302;40.122;18.310;2024-02-15T00:22:12;12.10;60.60
84173;DHT22;74302;40.122;18.310;2024-02-15T00:23:56;12.20;60.60
84173;DHT22;74302;40.122;18.310;2024-02-15T00:25:42;12.10;60.60
84173;DHT22;74302;40.122;18.310;2024-02-15T00:27:29;12.10;60.60
84173;DHT22;74302;40.122;18.310;2024-02-15T00:29:15;12.10;60.70
84173;DHT22;74302;40.122;18.310;2024-02-15T00:30:58;12.10;60.70
84173;DHT22;74302;40.122;18.310;2024-02-15T00:32:42;12.10;60.60
84173;DHT22;74302;40.122;18.310;2024-02-15T00:34:27;12.10;60.60
84173;DHT22;74302;40.122;18.310;2024-02-15T00:36:12;12.10;60.60
84173;DHT22;74302;40.122;18.310;2024-02-15T00:37:55;12.00;60.60
84173;DHT22;74302;40.122;18.310;2024-02-15T00:39:40;12.00;60.70
84173;DHT22;74302;40.122;18.310;2024-02-15T00:41:23;12.00;60.70
84173;DHT22;74302;40.122;18.310;2024-02-15T00:43:08;12.00;60.70
84173;DHT22;74302;40.122;18.310;2024-02-15T00:44:52;12.00;60.70
84173;DHT22;74302;40.122;18.310;2024-02-15T00:46:36;12.00;60.80
84173;DHT22;74302;40.122;18.310;2024-02-15T00:48:20;12.00;60.80
84173;DHT22;74302;40.122;18.310;2024-02-15T00:50:05;12.00;60.80
84173;DHT22;74302;40.122;18.310;2024-02-15T00:51:49;12.00;60.80
84173;DHT22;74302;40.122;18.310;2024-02-15T00:53:33;12.00;60.80
84173;DHT22;74302;40.122;18.310;2024-02-15T00:55:16;11.90;60.80
84173;DHT22;74302;40.122;18.310;2024-02-15T00:57:02;11.90;60.80
84173;DHT22;74302;40.122;18.310;2024-02-15T00:58:46;11.90;60.90
84173;DHT22;74302;40.122;18.310;2024-02-15T01:00:31;11.90;60.90
84173;DHT22;74302;40.122;18.310;2024-02-15T01:02:14;11.90;60.90
84173;DHT22;74302;40.122;18.310;2024-02-15T01:03:58;11.80;61.00
84173;DHT22;74302;40.122;18.310;2024-02-15T01:05:42;11.80;60.90
84173;DHT22;74302;40.122;18.310;2024-02-15T01:07:26;11.80;61.00
84173;DHT22;74302;40.122;18.310;2024-02-15T01:09:10;11.80;61.00
84173;DHT22;74302;40.122;18.310;2024-02-15T01:10:53;11.80;61.10
84173;DHT22;74302;40.122;18.310;2024-02-15T01:12:38;11.80;61.10
84173;DHT22;74302;40.122;18.310;2024-02-15T01:14:25;11.70;61.10
84173;DHT22;74302;40.122;18.310;2024-02-15T01:16:13;11.80;61.10
84173;DHT22;74302;40.122;18.310;2024-02-15T01:17:56;11.80;61.10
84173;DHT22;74302;40.122;18.310;2024-02-15T01:19:40;11.80;61.10
84173;DHT22;74302;40.122;18.310;2024-02-15T01:21:24;11.70;61.10
84173;DHT22;74302;40.122;18.310;2024-02-15T01:23:08;11.80;61.10
84173;DHT22;74302;40.122;18.310;2024-02-15T01:24:52;11.80;61.10
84173;DHT22;74302;40.122;18.310;2024-02-15T01:26:36;11.80;61.10
84173;DHT22;74302;40.122;18.310;2024-02-15T01:28:20;11.80;61.10
84173;DHT22;74302;40.122;18.310;2024-02-15T01:30:07;11.70;61.10
84173;DHT22;74302;40.122;18.310;2024-02-15T01:31:52;11.70;61.10
84173;DHT22;74302;40.122;18.310;2024-02-15T01:33:36;11.80;61.10
84173;DHT22;74302;40.122;18.310;2024-02-15T01:35:20;11.70;61.10
84173;DHT22;74302;40.122;18.310;2024-02-15T01:37:04;11.70;61.10
84173;DHT22;74302;40.122;18.310;2024-02-15T01:38:48;11.70;61.10
84173;DHT22;74302;40.122;18.310;2024-02-15T01:40:32;11.70;61.10
84173;DHT22;74302;40.122;18.310;2024-02-15T01:42:16;11.70;61.10
84173;DHT22;74302;40.122;18.310;2024-02-15T01:43:59;11.70;61.10
84173;DHT22;74302;40.122;18.310;2024-02-15T01:45:44;11.70;61.10
84173;DHT22;74302;40.122;18.310;2024-02-15T01:47:29;11.70;61.10
84173;DHT22;74302;40.122;18.310;2024-02-15T01:49:13;11.70;61.10
84173;DHT22;74302;40.122;18.310;2024-02-15T01:50:58;11.70;61.10
84173;DHT22;74302;40.122;18.310;2024-02-15T01:52:43;11.70;61.10
84173;DHT22;74302;40.122;18.310;2024-02-15T01:54:30;11.70;61.10
84173;DHT22;74302;40.122;18.310;2024-02-15T01:56:15;11.70;61.10
84173;DHT22;74302;40.122;18.310;2024-02-15T01:58:01;11.70;61.10
84173;DHT22;74302;40.122;18.310;2024-02-15T01:59:45;11.70;61.10
84173;DHT22;74302;40.122;18.310;2024-02-15T02:01:32;11.70;61.00
84173;DHT22;74302;40.122;18.310;2024-02-15T02:03:17;11.70;61.00
84173;DHT22;74302;40.122;18.310;2024-02-15T02:05:03;11.70;61.00
84173;DHT22;74302;40.122;18.310;2024-02-15T02:06:47;11.70;61.00
84173;DHT22;74302;40.122;18.310;2024-02-15T02:08:31;11.70;60.90
84173;DHT22;74302;40.122;18.310;2024-02-15T02:10:15;11.80;60.90
84173;DHT22;74302;40.122;18.310;2024-02-15T02:11:59;11.80;60.80
84173;DHT22;74302;40.122;18.310;2024-02-15T02:13:43;11.80;60.80
84173;DHT22;74302;40.122;18.310;2024-02-15T02:15:27;11.80;60.80
84173;DHT22;74302;40.122;18.310;2024-02-15T02:17:13;11.80;60.80
84173;DHT22;74302;40.122;18.310;2024-02-15T02:18:58;11.90;60.70
84173;DHT22;74302;40.122;18.310;2024-02-15T02:20:42;11.80;60.70
84173;DHT22;74302;40.122;18.310;2024-02-15T02:22:28;11.90;60.70
84173;DHT22;74302;40.122;18.310;2024-02-15T02:24:21;11.80;60.70
84173;DHT22;74302;40.122;18.310;2024-02-15T02:26:07;11.80;60.70
84173;DHT22;74302;40.122;18.310;2024-02-15T02:27:53;11.90;60.70
84173;DHT22;74302;40.122;18.310;2024-02-15T02:29:42;11.80;60.60
84173;DHT22;74302;40.122;18.310;2024-02-15T02:31:28;11.80;60.60
84173;DHT22;74302;40.122;18.310;2024-02-15T02:33:12;11.80;60.60
84173;DHT22;74302;40.122;18.310;2024-02-15T02:35:01;11.70;60.60
84173;DHT22;74302;40.122;18.310;2024-02-15T02:36:46;11.70;60.70
84173;DHT22;74302;40.122;18.310;2024-02-15T02:38:30;11.70;60.70
84173;DHT22;74302;40.122;18.310;2024-02-15T02:40:14;11.70;60.80
84173;DHT22;74302;40.122;18.310;2024-02-15T02:41:59;11.60;60.90
84173;DHT22;74302;40.122;18.310;2024-02-15T02:43:43;11.60;60.90
84173;DHT22;74302;40.122;18.310;2024-02-15T02:45:26;11.60;60.90
84173;DHT22;74302;40.122;18.310;2024-02-15T02:47:10;11.60;60.90
84173;DHT22;74302;40.122;18.310;2024-02-15T02:48:53;11.60;60.90
84173;DHT22;74302;40.122;18.310;2024-02-15T02:50:38;11.60;60.90
84173;DHT22;74302;40.122;18.310;2024-02-15T02:52:21;11.50;60.90
84173;DHT22;74302;40.122;18.310;2024-02-15T02:54:05;11.50;60.90
84173;DHT22;74302;40.122;18.310;2024-02-15T02:55:49;11.50;61.00
84173;DHT22;74302;40.122;18.310;2024-02-15T02:57:35;11.50;61.00
84173;DHT22;74302;40.122;18.310;2024-02-15T02:59:19;11.50;61.10
84173;DHT22;74302;40.122;18.310;2024-02-15T03:01:04;11.50;61.10
84173;DHT22;74302;40.122;18.310;2024-02-15T03:02:47;11.50;61.10
84173;DHT22;74302;40.122;18.310;2024-02-15T03:04:32;11.50;61.10
84173;DHT22;74302;40.122;18.310;2024-02-15T03:06:15;11.40;61.10
84173;DHT22;74302;40.122;18.310;2024-02-15T03:08:00;11.40;61.10
84173;DHT22;74302;40.122;18.310;2024-02-15T03:09:44;11.40;61.10
84173;DHT22;74302;40.122;18.310;2024-02-15T03:11:27;11.40;61.10
84173;DHT22;74302;40.122;18.310;2024-02-15T03:13:13;11.40;61.20
84173;DHT22;74302;40.122;18.310;2024-02-15T03:14:57;11.30;61.20
84173;DHT22;74302;40.122;18.310;2024-02-15T03:16:41;11.30;61.30
84173;DHT22;74302;40.122;18.310;2024-02-15T03:18:25;11.20;61.30
84173;DHT22;74302;40.122;18.310;2024-02-15T03:20:11;11.20;61.30
84173;DHT22;74302;40.122;18.310;2024-02-15T03:22:02;11.20;61.40
84173;DHT22;74302;40.122;18.310;2024-02-15T03:23:47;11.20;61.40
84173;DHT22;74302;40.122;18.310;2024-02-15T03:25:32;11.20;61.40
84173;DHT22;74302;40.122;18.310;2024-02-15T03:27:17;11.20;61.40
84173;DHT22;74302;40.122;18.310;2024-02-15T03:29:06;11.20;61.40
84173;DHT22;74302;40.122;18.310;2024-02-15T03:30:52;11.20;61.50
84173;DHT22;74302;40.122;18.310;2024-02-15T03:32:35;11.20;61.50
84173;DHT22;74302;40.122;18.310;2024-02-15T03:34:20;11.20;61.50
84173;DHT22;74302;40.122;18.310;2024-02-15T03:36:06;11.20;61.50
84173;DHT22;74302;40.122;18.310;2024-02-15T03:37:50;11.20;61.60
84173;DHT22;74302;40.122;18.310;2024-02-15T03:39:34;11.10;61.50
84173;DHT22;74302;40.122;18.310;2024-02-15T03:41:18;11.10;61.50
84173;DHT22;74302;40.122;18.310;2024-02-15T03:43:02;11.10;61.60
84173;DHT22;74302;40.122;18.310;2024-02-15T03:44:50;11.10;61.60
84173;DHT22;74302;40.122;18.310;2024-02-15T03:46:37;11.10;61.60
84173;DHT22;74302;40.122;18.310;2024-02-15T03:48:21;11.10;61.60
84173;DHT22;74302;40.122;18.310;2024-02-15T03:50:05;11.10;61.60
84173;DHT22;74302;40.122;18.310;2024-02-15T03:51:51;11.00;61.60
84173;DHT22;74302;40.122;18.310;2024-02-15T03:53:37;11.00;61.60
84173;DHT22;74302;40.122;18.310;2024-02-15T03:55:20;11.00;61.70
84173;DHT22;74302;40.122;18.310;2024-02-15T03:57:08;10.90;61.70
84173;DHT22;74302;40.122;18.310;2024-02-15T03:58:51;10.90;61.70
84173;DHT22;74302;40.122;18.310;2024-02-15T04:00:37;10.90;61.70
84173;DHT22;74302;40.122;18.310;2024-02-15T04:02:24;10.90;61.70
84173;DHT22;74302;40.122;18.310;2024-02-15T04:04:09;10.90;61.70
84173;DHT22;74302;40.122;18.310;2024-02-15T04:05:53;10.90;61.70
84173;DHT22;74302;40.122;18.310;2024-02-15T04:07:37;10.90;61.70
84173;DHT22;74302;40.122;18.310;2024-02-15T04:09:20;10.90;61.70
84173;DHT22;74302;40.122;18.310;2024-02-15T04:11:05;10.90;61.70
84173;DHT22;74302;40.122;18.310;2024-02-15T04:12:49;10.90;61.70
84173;DHT22;74302;40.122;18.310;2024-02-15T04:14:33;10.90;61.70
84173;DHT22;74302;40.122;18.310;2024-02-15T04:16:18;10.90;61.70
84173;DHT22;74302;40.122;18.310;2024-02-15T04:18:02;10.90;61.70
84173;DHT22;74302;40.122;18.310;2024-02-15T04:19:46;11.00;61.70
84173;DHT22;74302;40.122;18.310;2024-02-15T04:21:30;11.00;61.70
84173;DHT22;74302;40.122;18.310;2024-02-15T04:23:14;11.00;61.70
84173;DHT22;74302;40.122;18.310;2024-02-15T04:24:57;11.10;61.60
84173;DHT22;74302;40.122;18.310;2024-02-15T04:26:41;11.10;61.60
84173;DHT22;74302;40.122;18.310;2024-02-15T04:28:25;11.00;61.50
84173;DHT22;74302;40.122;18.310;2024-02-15T04:30:10;11.10;61.50
84173;DHT22;74302;40.122;18.310;2024-02-15T04:31:55;11.10;61.50
84173;DHT22;74302;40.122;18.310;2024-02-15T04:33:40;11.00;61.50
84173;DHT22;74302;40.122;18.310;2024-02-15T04:35:24;11.00;61.50
84173;DHT22;74302;40.122;18.310;2024-02-15T04:37:09;11.00;61.50
84173;DHT22;74302;40.122;18.310;2024-02-15T04:38:53;10.90;61.50
84173;DHT22;74302;40.122;18.310;2024-02-15T04:40:36;11.00;61.60
84173;DHT22;74302;40.122;18.310;2024-02-15T04:42:22;10.90;61.60
84173;DHT22;74302;40.122;18.310;2024-02-15T04:44:08;10.90;61.60
84173;DHT22;74302;40.122;18.310;2024-02-15T04:45:54;10.90;61.60
84173;DHT22;74302;40.122;18.310;2024-02-15T04:47:40;10.90;61.60
84173;DHT22;74302;40.122;18.310;2024-02-15T04:49:24;10.90;61.60
84173;DHT22;74302;40.122;18.310;2024-02-15T04:51:07;10.90;61.60
84173;DHT22;74302;40.122;18.310;2024-02-15T04:52:51;10.90;61.60
84173;DHT22;74302;40.122;18.310;2024-02-15T04:54:36;10.90;61.60
84173;DHT22;74302;40.122;18.310;2024-02-15T04:56:18;10.80;61.60
84173;DHT22;74302;40.122;18.310;2024-02-15T04:58:03;10.80;61.60
84173;DHT22;74302;40.122;18.310;2024-02-15T04:59:47;10.80;61.60
84173;DHT22;74302;40.122;18.310;2024-02-15T05:01:32;10.70;61.60
84173;DHT22;74302;40.122;18.310;2024-02-15T05:03:18;10.80;61.60
84173;DHT22;74302;40.122;18.310;2024-02-15T05:05:02;10.70;61.60
84173;DHT22;74302;40.122;18.310;2024-02-15T05:06:46;10.70;61.60
84173;DHT22;74302;40.122;18.310;2024-02-15T05:08:30;10.70;61.60
84173;DHT22;74302;40.122;18.310;2024-02-15T05:10:15;10.70;61.60
84173;DHT22;74302;40.122;18.310;2024-02-15T05:12:00;10.70;61.60
84173;DHT22;74302;40.122;18.310;2024-02-15T05:13:45;10.70;61.50
84173;DHT22;74302;40.122;18.310;2024-02-15T05:15:29;10.70;61.60
84173;DHT22;74302;40.122;18.310;2024-02-15T05:17:12;10.70;61.50
84173;DHT22;74302;40.122;18.310;2024-02-15T05:18:57;10.70;61.50
84173;DHT22;74302;40.122;18.310;2024-02-15T05:20:40;10.60;61.50
84173;DHT22;74302;40.122;18.310;2024-02-15T05:22:25;10.60;61.60
84173;DHT22;74302;40.122;18.310;2024-02-15T05:24:12;10.60;61.60
84173;DHT22;74302;40.122;18.310;2024-02-15T05:25:56;10.60;61.60
84173;DHT22;74302;40.122;18.310;2024-02-15T05:27:41;10.60;61.70
84173;DHT22;74302;40.122;18.310;2024-02-15T05:29:25;10.60;61.70
84173;DHT22;74302;40.122;18.310;2024-02-15T05:31:10;10.50;61.70
84173;DHT22;74302;40.122;18.310;2024-02-15T05:32:55;10.50;61.70
84173;DHT22;74302;40.122;18.310;2024-02-15T05:34:40;10.50;61.70
84173;DHT22;74302;40.122;18.310;2024-02-15T05:36:25;10.50;61.70
84173;DHT22;74302;40.122;18.310;2024-02-15T05:38:08;10.50;61.70
84173;DHT22;74302;40.122;18.310;2024-02-15T05:39:54;10.50;61.70
84173;DHT22;74302;40.122;18.310;2024-02-15T05:41:38;10.50;61.70
84173;DHT22;74302;40.122;18.310;2024-02-15T05:43:22;10.50;61.70
84173;DHT22;74302;40.122;18.310;2024-02-15T05:45:30;10.50;61.70
84173;DHT22;74302;40.122;18.310;2024-02-15T05:47:15;10.50;61.70
84173;DHT22;74302;40.122;18.310;2024-02-15T05:48:59;10.40;61.70
84173;DHT22;74302;40.122;18.310;2024-02-15T05:50:46;10.50;61.70
84173;DHT22;74302;40.122;18.310;2024-02-15T05:52:30;10.50;61.70
84173;DHT22;74302;40.122;18.310;2024-02-15T05:54:13;10.40;61.70
84173;DHT22;74302;40.122;18.310;2024-02-15T05:55:57;10.40;61.70
84173;DHT22;74302;40.122;18.310;2024-02-15T05:57:42;10.40;61.70
84173;DHT22;74302;40.122;18.310;2024-02-15T05:59:26;10.40;61.80
84173;DHT22;74302;40.122;18.310;2024-02-15T06:01:11;10.40;61.70
84173;DHT22;74302;40.122;18.310;2024-02-15T06:02:56;10.40;61.70
84173;DHT22;74302;40.122;18.310;2024-02-15T06:04:41;10.50;61.70
84173;DHT22;74302;40.122;18.310;2024-02-15T06:06:26;10.50;61.70
84173;DHT22;74302;40.122;18.310;2024-02-15T06:08:11;10.50;61.70
84173;DHT22;74302;40.122;18.310;2024-02-15T06:09:55;10.60;61.60
84173;DHT22;74302;40.122;18.310;2024-02-15T06:11:38;10.60;61.60
84173;DHT22;74302;40.122;18.310;2024-02-15T06:13:23;10.60;61.50
84173;DHT22;74302;40.122;18.310;2024-02-15T06:15:07;10.70;61.50
84173;DHT22;74302;40.122;18.310;2024-02-15T06:16:57;10.70;61.40
84173;DHT22;74302;40.122;18.310;2024-02-15T06:18:40;10.80;61.30
84173;DHT22;74302;40.122;18.310;2024-02-15T06:20:25;10.90;61.20
84173;DHT22;74302;40.122;18.310;2024-02-15T06:22:12;11.10;61.10
84173;DHT22;74302;40.122;18.310;2024-02-15T06:23:57;11.20;60.90
84173;DHT22;74302;40.122;18.310;2024-02-15T06:25:41;11.40;60.70
84173;DHT22;74302;40.122;18.310;2024-02-15T06:27:24;11.60;60.50
84173;DHT22;74302;40.122;18.310;2024-02-15T06:29:08;11.70;60.20
84173;DHT22;74302;40.122;18.310;2024-02-15T06:31:11;12.00;60.00
84173;DHT22;74302;40.122;18.310;2024-02-15T06:33:12;12.20;59.70
84173;DHT22;74302;40.122;18.310;2024-02-15T06:35:15;12.50;59.50
84173;DHT22;74302;40.122;18.310;2024-02-15T06:37:41;12.70;59.20
84173;DHT22;74302;40.122;18.310;2024-02-15T06:39:43;13.00;58.90
84173;DHT22;74302;40.122;18.310;2024-02-15T06:41:28;13.20;58.50
84173;DHT22;74302;40.122;18.310;2024-02-15T06:43:11;13.50;58.40
84173;DHT22;74302;40.122;18.310;2024-02-15T06:44:56;13.70;58.20
84173;DHT22;74302;40.122;18.310;2024-02-15T06:46:40;13.80;58.00
84173;DHT22;74302;40.122;18.310;2024-02-15T06:48:24;14.00;57.70
84173;DHT22;74302;40.122;18.310;2024-02-15T06:50:10;14.20;57.60
84173;DHT22;74302;40.122;18.310;2024-02-15T06:51:55;14.40;57.40
84173;DHT22;74302;40.122;18.310;2024-02-15T06:53:43;14.70;57.10
84173;DHT22;74302;40.122;18.310;2024-02-15T06:55:26;15.00;56.80
84173;DHT22;74302;40.122;18.310;2024-02-15T06:57:10;15.20;56.60
84173;DHT22;74302;40.122;18.310;2024-02-15T06:58:53;15.50;56.30
84173;DHT22;74302;40.122;18.310;2024-02-15T07:00:38;15.80;56.00
84173;DHT22;74302;40.122;18.310;2024-02-15T07:02:23;16.10;55.70
84173;DHT22;74302;40.122;18.310;2024-02-15T07:04:07;16.50;55.40
84173;DHT22;74302;40.122;18.310;2024-02-15T07:05:54;16.80;55.10
84173;DHT22;74302;40.122;18.310;2024-02-15T07:07:38;17.20;54.80
84173;DHT22;74302;40.122;18.310;2024-02-15T07:09:23;17.70;54.60
84173;DHT22;74302;40.122;18.310;2024-02-15T07:11:08;18.30;54.40
84173;DHT22;74302;40.122;18.310;2024-02-15T07:12:51;19.00;53.90
84173;DHT22;74302;40.122;18.310;2024-02-15T07:14:35;20.00;53.50
84173;DHT22;74302;40.122;18.310;2024-02-15T07:16:19;21.30;51.70
84173;DHT22;74302;40.122;18.310;2024-02-15T07:18:03;22.70;50.70
84173;DHT22;74302;40.122;18.310;2024-02-15T07:19:49;24.20;48.10
84173;DHT22;74302;40.122;18.310;2024-02-15T07:21:34;25.60;46.30
84173;DHT22;74302;40.122;18.310;2024-02-15T07:23:17;26.70;44.90
84173;DHT22;74302;40.122;18.310;2024-02-15T07:25:02;27.70;43.90
84173;DHT22;74302;40.122;18.310;2024-02-15T07:26:47;28.80;43.60
84173;DHT22;74302;40.122;18.310;2024-02-15T07:28:31;29.90;42.30
84173;DHT22;74302;40.122;18.310;2024-02-15T07:30:14;30.90;41.90
84173;DHT22;74302;40.122;18.310;2024-02-15T07:32:00;31.80;40.70
84173;DHT22;74302;40.122;18.310;2024-02-15T07:33:45;32.40;40.20
84173;DHT22;74302;40.122;18.310;2024-02-15T07:35:28;33.00;39.80
84173;DHT22;74302;40.122;18.310;2024-02-15T07:37:13;33.60;39.40
84173;DHT22;74302;40.122;18.310;2024-02-15T07:38:58;34.10;39.00
84173;DHT22;74302;40.122;18.310;2024-02-15T07:40:45;34.60;38.70
84173;DHT22;74302;40.122;18.310;2024-02-15T07:42:28;35.00;38.40
84173;DHT22;74302;40.122;18.310;2024-02-15T07:44:12;35.30;38.20
84173;DHT22;74302;40.122;18.310;2024-02-15T07:45:56;35.80;37.90
84173;DHT22;74302;40.122;18.310;2024-02-15T07:47:40;35.90;37.70
84173;DHT22;74302;40.122;18.310;2024-02-15T07:49:23;36.10;37.60
84173;DHT22;74302;40.122;18.310;2024-02-15T07:51:08;36.30;37.40
84173;DHT22;74302;40.122;18.310;2024-02-15T07:52:52;36.30;37.40
84173;DHT22;74302;40.122;18.310;2024-02-15T07:54:36;36.30;37.50
84173;DHT22;74302;40.122;18.310;2024-02-15T07:56:21;36.50;37.40
84173;DHT22;74302;40.122;18.310;2024-02-15T07:58:05;36.80;37.20
84173;DHT22;74302;40.122;18.310;2024-02-15T07:59:49;37.00;36.90
84173;DHT22;74302;40.122;18.310;2024-02-15T08:01:33;37.00;36.80
84173;DHT22;74302;40.122;18.310;2024-02-15T08:03:17;36.90;36.80
84173;DHT22;74302;40.122;18.310;2024-02-15T08:05:00;36.80;36.80
84173;DHT22;74302;40.122;18.310;2024-02-15T08:06:48;36.70;37.00
84173;DHT22;74302;40.122;18.310;2024-02-15T08:08:34;36.70;36.80
84173;DHT22;74302;40.122;18.310;2024-02-15T08:10:18;36.60;36.80
84173;DHT22;74302;40.122;18.310;2024-02-15T08:12:05;36.40;36.90
84173;DHT22;74302;40.122;18.310;2024-02-15T08:13:50;36.30;36.90
84173;DHT22;74302;40.122;18.310;2024-02-15T08:15:36;36.20;37.00
84173;DHT22;74302;40.122;18.310;2024-02-15T08:17:19;36.10;36.90
84173;DHT22;74302;40.122;18.310;2024-02-15T08:19:03;35.80;36.80
84173;DHT22;74302;40.122;18.310;2024-02-15T08:20:49;34.90;36.90
84173;DHT22;74302;40.122;18.310;2024-02-15T08:22:32;33.50;37.70
84173;DHT22;74302;40.122;18.310;2024-02-15T08:24:17;31.70;39.20
84173;DHT22;74302;40.122;18.310;2024-02-15T08:26:00;30.00;40.60
84173;DHT22;74302;40.122;18.310;2024-02-15T08:27:47;28.50;42.10
84173;DHT22;74302;40.122;18.310;2024-02-15T08:29:32;27.10;43.30
84173;DHT22;74302;40.122;18.310;2024-02-15T08:31:16;25.90;44.50
84173;DHT22;74302;40.122;18.310;2024-02-15T08:33:02;25.00;45.40
84173;DHT22;74302;40.122;18.310;2024-02-15T08:34:46;24.20;46.00
84173;DHT22;74302;40.122;18.310;2024-02-15T08:36:31;23.50;46.60
84173;DHT22;74302;40.122;18.310;2024-02-15T08:38:15;22.90;47.00
84173;DHT22;74302;40.122;18.310;2024-02-15T08:39:59;22.30;47.40
84173;DHT22;74302;40.122;18.310;2024-02-15T08:41:43;21.80;47.70
84173;DHT22;74302;40.122;18.310;2024-02-15T08:43:29;21.30;48.00
84173;DHT22;74302;40.122;18.310;2024-02-15T08:45:15;20.90;48.50
84173;DHT22;74302;40.122;18.310;2024-02-15T08:46:58;20.70;48.80
84173;DHT22;74302;40.122;18.310;2024-02-15T08:48:42;20.40;48.90
84173;DHT22;74302;40.122;18.310;2024-02-15T08:50:26;20.20;49.10
84173;DHT22;74302;40.122;18.310;2024-02-15T08:52:10;20.10;49.20
84173;DHT22;74302;40.122;18.310;2024-02-15T08:53:54;19.90;49.20
84173;DHT22;74302;40.122;18.310;2024-02-15T08:55:40;19.70;49.20
84173;DHT22;74302;40.122;18.310;2024-02-15T08:57:23;19.70;49.20
84173;DHT22;74302;40.122;18.310;2024-02-15T08:59:09;19.60;49.10
84173;DHT22;74302;40.122;18.310;2024-02-15T09:00:53;19.50;49.10
84173;DHT22;74302;40.122;18.310;2024-02-15T09:02:37;19.40;49.10
84173;DHT22;74302;40.122;18.310;2024-02-15T09:04:20;19.30;49.30
84173;DHT22;74302;40.122;18.310;2024-02-15T09:06:06;19.30;49.30
84173;DHT22;74302;40.122;18.310;2024-02-15T09:07:50;19.20;49.30
84173;DHT22;74302;40.122;18.310;2024-02-15T09:09:34;19.20;49.20
84173;DHT22;74302;40.122;18.310;2024-02-15T09:11:19;19.20;49.20
84173;DHT22;74302;40.122;18.310;2024-02-15T09:13:02;19.20;49.00
84173;DHT22;74302;40.122;18.310;2024-02-15T09:14:50;19.00;49.00
84173;DHT22;74302;40.122;18.310;2024-02-15T09:16:33;18.90;49.00
84173;DHT22;74302;40.122;18.310;2024-02-15T09:18:19;18.70;49.00
84173;DHT22;74302;40.122;18.310;2024-02-15T09:20:07;18.70;49.10
84173;DHT22;74302;40.122;18.310;2024-02-15T09:21:51;18.70;49.20
84173;DHT22;74302;40.122;18.310;2024-02-15T09:23:36;18.70;49.10
84173;DHT22;74302;40.122;18.310;2024-02-15T09:25:22;18.70;49.00
84173;DHT22;74302;40.122;18.310;2024-02-15T09:27:07;18.60;49.00
84173;DHT22;74302;40.122;18.310;2024-02-15T09:28:50;18.60;48.90
84173;DHT22;74302;40.122;18.310;2024-02-15T09:30:37;18.50;49.00
84173;DHT22;74302;40.122;18.310;2024-02-15T09:32:21;18.50;49.00
84173;DHT22;74302;40.122;18.310;2024-02-15T09:34:05;18.40;49.00
84173;DHT22;74302;40.122;18.310;2024-02-15T09:35:49;18.40;49.00
84173;DHT22;74302;40.122;18.310;2024-02-15T09:37:34;18.40;49.00
84173;DHT22;74302;40.122;18.310;2024-02-15T09:39:17;18.40;48.90
84173;DHT22;74302;40.122;18.310;2024-02-15T09:41:01;18.40;49.00
84173;DHT22;74302;40.122;18.310;2024-02-15T09:42:47;18.40;49.00
84173;DHT22;74302;40.122;18.310;2024-02-15T09:44:31;18.40;48.90
84173;DHT22;74302;40.122;18.310;2024-02-15T09:46:17;18.30;48.90
84173;DHT22;74302;40.122;18.310;2024-02-15T09:48:02;18.30;48.90
84173;DHT22;74302;40.122;18.310;2024-02-15T09:49:50;18.30;49.00
84173;DHT22;74302;40.122;18.310;2024-02-15T09:51:34;18.20;49.00
84173;DHT22;74302;40.122;18.310;2024-02-15T09:53:21;18.20;49.00
84173;DHT22;74302;40.122;18.310;2024-02-15T09:55:08;18.30;48.90
84173;DHT22;74302;40.122;18.310;2024-02-15T09:56:56;18.20;48.80
84173;DHT22;74302;40.122;18.310;2024-02-15T09:58:43;18.20;48.80
84173;DHT22;74302;40.122;18.310;2024-02-15T10:00:28;18.10;48.80
84173;DHT22;74302;40.122;18.310;2024-02-15T10:02:14;18.00;49.00
84173;DHT22;74302;40.122;18.310;2024-02-15T10:03:58;18.10;49.00
84173;DHT22;74302;40.122;18.310;2024-02-15T10:05:42;18.00;49.00
84173;DHT22;74302;40.122;18.310;2024-02-15T10:07:26;18.00;48.90
84173;DHT22;74302;40.122;18.310;2024-02-15T10:09:26;18.00;49.10
84173;DHT22;74302;40.122;18.310;2024-02-15T10:11:13;18.00;49.00
84173;DHT22;74302;40.122;18.310;2024-02-15T10:12:58;17.90;49.10
84173;DHT22;74302;40.122;18.310;2024-02-15T10:14:50;17.90;49.00
84173;DHT22;74302;40.122;18.310;2024-02-15T10:16:34;17.90;49.00
84173;DHT22;74302;40.122;18.310;2024-02-15T10:18:20;18.00;49.10
84173;DHT22;74302;40.122;18.310;2024-02-15T10:20:06;17.90;49.00
84173;DHT22;74302;40.122;18.310;2024-02-15T10:21:51;17.90;49.00
84173;DHT22;74302;40.122;18.310;2024-02-15T10:23:37;18.00;48.90
84173;DHT22;74302;40.122;18.310;2024-02-15T10:25:21;17.90;48.90
84173;DHT22;74302;40.122;18.310;2024-02-15T10:27:06;17.90;48.90
84173;DHT22;74302;40.122;18.310;2024-02-15T10:29:05;17.90;48.90
84173;DHT22;74302;40.122;18.310;2024-02-15T10:30:51;17.90;48.80
84173;DHT22;74302;40.122;18.310;2024-02-15T10:32:37;18.00;48.80
84173;DHT22;74302;40.122;18.310;2024-02-15T10:34:22;18.00;48.70
84173;DHT22;74302;40.122;18.310;2024-02-15T10:36:09;18.00;48.70
84173;DHT22;74302;40.122;18.310;2024-02-15T10:38:05;18.00;48.50
84173;DHT22;74302;40.122;18.310;2024-02-15T10:40:04;17.90;48.40
84173;DHT22;74302;40.122;18.310;2024-02-15T10:41:51;18.00;48.50
84173;DHT22;74302;40.122;18.310;2024-02-15T10:43:36;18.00;48.50
84173;DHT22;74302;40.122;18.310;2024-02-15T10:45:21;18.00;48.40
84173;DHT22;74302;40.122;18.310;2024-02-15T10:47:06;18.00;48.30
84173;DHT22;74302;40.122;18.310;2024-02-15T10:48:50;18.10;48.30
84173;DHT22;74302;40.122;18.310;2024-02-15T10:50:35;18.10;48.30
84173;DHT22;74302;40.122;18.310;2024-02-15T10:52:21;18.00;48.10
84173;DHT22;74302;40.122;18.310;2024-02-15T10:54:08;18.00;48.00